createdAt,value
2019-05-14T05:01:22.986Z,2.37
2019-05-14T05:03:52.934Z,2.17
2019-05-14T05:06:22.907Z,2.50
2019-05-14T05:08:52.910Z,2.45
2019-05-14T05:11:22.882Z,2.35
2019-05-14T05:13:52.814Z,2.80
2019-05-14T05:16:22.791Z,2.33
2019-05-14T05:18:52.757Z,2.47
2019-05-14T05:21:22.700Z,2.58
2019-05-14T05:23:52.667Z,3.05
2019-05-14T05:26:22.633Z,3.08
2019-05-14T05:29:03.556Z,2.80
2019-05-14T05:31:24.166Z,3.37
2019-05-14T05:33:54.134Z,3.22
2019-05-14T05:36:24.260Z,3.62
2019-05-14T05:38:54.209Z,3.70
2019-05-14T05:41:24.174Z,4.28
2019-05-14T05:43:54.139Z,3.58
2019-05-14T05:46:24.129Z,3.98
2019-05-14T05:48:54.093Z,4.30
2019-05-14T05:51:24.036Z,4.12
2019-05-14T05:53:54.019Z,3.98
2019-05-14T05:56:23.968Z,3.55
2019-05-14T05:58:54.082Z,4.08
2019-05-14T06:01:41.193Z,3.92
2019-05-14T06:03:55.660Z,4.08
2019-05-14T06:06:25.603Z,4.22
2019-05-14T06:08:55.581Z,3.85
2019-05-14T06:11:29.023Z,3.65
2019-05-14T06:13:59.018Z,3.75
2019-05-14T06:16:32.260Z,3.42
2019-05-14T06:19:02.213Z,3.27
2019-05-14T06:21:32.168Z,3.62
2019-05-14T06:24:04.708Z,3.30
2019-05-14T06:26:34.671Z,3.40
2019-05-14T06:29:04.791Z,3.70
2019-05-14T06:31:35.523Z,3.02
2019-05-14T06:34:05.547Z,3.62
2019-05-14T06:36:39.400Z,3.30
2019-05-14T06:39:09.282Z,3.25
2019-05-14T06:41:42.674Z,2.83
2019-05-14T06:44:10.994Z,3.10
2019-05-14T06:46:40.951Z,3.40
2019-05-14T06:49:10.923Z,2.80
2019-05-14T06:51:40.874Z,2.98
2019-05-14T06:54:11.025Z,3.15
2019-05-14T06:56:40.936Z,3.02
2019-05-14T06:59:10.897Z,2.85
2019-05-14T07:01:40.899Z,3.00
2019-05-14T07:04:10.932Z,2.42
2019-05-14T07:06:40.906Z,2.77
2019-05-14T07:09:10.861Z,2.87
2019-05-14T07:11:40.834Z,3.02
2019-05-14T07:14:11.546Z,2.30
2019-05-14T07:16:41.678Z,2.72
2019-05-14T07:19:11.637Z,2.35
2019-05-14T07:21:41.650Z,2.25
2019-05-14T07:24:11.616Z,2.35
2019-05-14T07:26:41.572Z,2.35
2019-05-14T07:29:12.615Z,1.80
2019-05-14T07:31:42.570Z,2.42
2019-05-14T07:34:12.569Z,2.15
2019-05-14T07:36:42.552Z,2.30
2019-05-14T07:39:12.503Z,2.00
2019-05-14T07:41:42.531Z,1.72
2019-05-14T07:44:12.485Z,1.72
2019-05-14T07:46:42.438Z,2.02
2019-05-14T07:49:12.397Z,1.85
2019-05-14T07:51:42.479Z,2.17
2019-05-14T07:54:12.468Z,2.30
2019-05-14T07:56:42.433Z,1.90
2019-05-14T07:59:12.420Z,1.60
2019-05-14T08:01:42.412Z,1.72
2019-05-14T08:04:12.396Z,2.58
2019-05-14T08:06:42.365Z,2.40
2019-05-14T08:09:12.889Z,2.80
2019-05-14T08:11:42.936Z,2.05
2019-05-14T08:14:12.943Z,1.75
2019-05-14T08:16:42.894Z,1.60
2019-05-14T08:19:24.203Z,1.57
2019-05-14T08:21:44.607Z,1.80
2019-05-14T08:24:15.397Z,1.82
2019-05-14T08:26:48.546Z,1.72
2019-05-14T08:29:18.147Z,1.62
2019-05-14T08:31:48.973Z,1.72
2019-05-14T08:34:19.225Z,1.60
2019-05-14T08:36:49.291Z,1.55
2019-05-14T08:39:19.277Z,1.30
2019-05-14T08:41:58.630Z,1.67
2019-05-14T08:44:20.915Z,1.77
2019-05-14T08:46:52.181Z,2.00
2019-05-14T08:49:37.158Z,1.92
2019-05-14T08:51:54.014Z,2.45
2019-05-14T08:54:23.946Z,1.60
2019-05-14T08:56:53.912Z,1.60
2019-05-14T08:59:23.885Z,1.27
2019-05-14T09:02:01.867Z,2.35
2019-05-14T09:04:29.746Z,1.60
2019-05-14T09:06:58.294Z,1.50
2019-05-14T09:09:29.288Z,1.65
2019-05-14T09:11:59.974Z,2.20
2019-05-14T09:14:31.060Z,1.35
2019-05-14T09:17:01.044Z,1.70
2019-05-14T09:19:31.013Z,1.67
2019-05-14T09:22:00.988Z,1.30
2019-05-14T09:24:30.943Z,1.70
2019-05-14T09:27:00.925Z,1.30
2019-05-14T09:29:30.877Z,1.90
2019-05-14T09:32:00.928Z,1.67
2019-05-14T09:34:30.910Z,1.25
2019-05-14T09:37:00.896Z,1.95
2019-05-14T09:39:30.850Z,1.90
2019-05-14T09:42:00.850Z,1.35
2019-05-14T09:44:30.826Z,2.45
2019-05-14T09:47:00.808Z,1.75
2019-05-14T09:49:30.933Z,1.50
2019-05-14T09:52:00.892Z,1.47
2019-05-14T09:54:30.856Z,1.60
2019-05-14T09:57:00.832Z,1.70
2019-05-14T09:59:31.473Z,1.32
2019-05-14T10:02:01.471Z,1.90
2019-05-14T10:04:31.505Z,1.75
2019-05-14T10:07:01.469Z,1.57
2019-05-14T10:09:31.420Z,1.40
2019-05-14T10:12:01.506Z,1.05
2019-05-14T10:14:31.461Z,1.37
2019-05-14T10:17:01.524Z,1.30
2019-05-14T10:19:31.477Z,1.12
2019-05-14T10:22:01.463Z,1.57
2019-05-14T10:24:31.421Z,1.55
2019-05-14T10:27:01.418Z,1.20
2019-05-14T10:29:31.367Z,1.20
2019-05-14T10:32:01.373Z,1.15
2019-05-14T10:34:31.324Z,1.35
2019-05-14T10:37:01.307Z,1.27
2019-05-14T10:39:31.295Z,1.67
2019-05-14T10:42:01.246Z,1.30
2019-05-14T10:44:31.219Z,1.42
2019-05-14T10:47:02.247Z,1.45
2019-05-14T10:49:32.252Z,1.32
2019-05-14T10:52:02.209Z,1.22
2019-05-14T10:54:32.186Z,1.60
2019-05-14T10:57:02.159Z,1.40
2019-05-14T10:59:32.167Z,1.75
2019-05-14T11:02:02.093Z,1.57
2019-05-14T11:04:34.418Z,1.67
2019-05-14T11:07:03.670Z,1.90
2019-05-14T11:09:38.141Z,1.60
2019-05-14T11:12:08.955Z,1.70
2019-05-14T11:14:39.161Z,1.40
2019-05-14T11:17:11.797Z,1.65
2019-05-14T11:19:40.752Z,1.50
2019-05-14T11:22:10.806Z,1.52
2019-05-14T11:24:40.761Z,1.70
2019-05-14T11:27:11.402Z,1.30
2019-05-14T11:29:41.364Z,1.77
2019-05-14T11:32:11.382Z,1.82
2019-05-14T11:34:41.329Z,1.60
2019-05-14T11:37:11.333Z,1.80
2019-05-14T11:39:41.276Z,1.77
2019-05-14T11:42:11.228Z,1.80
2019-05-14T11:44:42.269Z,1.72
2019-05-14T11:47:12.229Z,1.72
2019-05-14T11:49:42.225Z,1.60
2019-05-14T11:52:12.243Z,1.47
2019-05-14T11:54:42.210Z,1.50
2019-05-14T11:57:12.238Z,1.15
2019-05-14T11:59:42.203Z,1.77
2019-05-14T12:02:12.186Z,2.17
2019-05-14T12:04:42.142Z,1.45
2019-05-14T12:07:12.122Z,1.30
2019-05-14T12:09:42.069Z,1.45
2019-05-14T12:12:12.846Z,1.22
2019-05-14T12:14:43.086Z,1.20
2019-05-14T12:17:13.041Z,1.60
2019-05-14T12:19:43.797Z,1.25
2019-05-14T12:22:14.379Z,1.47
2019-05-14T12:24:44.391Z,1.82
2019-05-14T12:27:14.347Z,1.60
2019-05-14T12:29:44.323Z,1.50
2019-05-14T12:32:15.257Z,1.67
2019-05-14T12:34:45.247Z,1.30
2019-05-14T12:37:15.193Z,1.00
2019-05-14T12:39:45.197Z,1.52
2019-05-14T12:42:15.152Z,1.30
2019-05-14T12:44:46.094Z,1.60
2019-05-14T12:47:18.600Z,1.05
2019-05-14T12:49:48.343Z,1.07
2019-05-14T12:52:25.451Z,1.60
2019-05-14T12:54:50.355Z,1.50
2019-05-14T12:57:20.320Z,1.00
2019-05-14T12:59:50.314Z,1.20
2019-05-14T13:02:20.382Z,1.92
2019-05-14T13:04:50.400Z,1.12
2019-05-14T13:07:20.387Z,2.40
2019-05-14T13:09:51.420Z,2.75
2019-05-14T13:12:23.189Z,2.70
2019-05-14T13:14:53.132Z,1.67
2019-05-14T13:17:23.178Z,1.42
2019-05-14T13:19:53.168Z,1.22
2019-05-14T13:22:38.246Z,1.30
2019-05-14T13:24:54.707Z,1.60
2019-05-14T13:27:24.813Z,1.45
2019-05-14T13:29:54.795Z,1.80
2019-05-14T13:32:24.746Z,1.30
2019-05-14T13:34:54.774Z,1.22
2019-05-14T13:37:24.789Z,1.37
2019-05-14T13:39:54.804Z,1.27
2019-05-14T13:42:24.761Z,2.75
2019-05-14T13:44:54.773Z,2.45
2019-05-14T13:49:54.626Z,1.42
2019-05-14T13:52:24.631Z,1.65
2019-05-14T13:54:54.761Z,1.30
2019-05-14T13:57:24.731Z,1.12
2019-05-14T13:59:54.833Z,1.52
2019-05-14T14:02:27.933Z,2.25
2019-05-14T14:04:58.827Z,2.33
2019-05-14T14:07:28.301Z,2.20
2019-05-14T14:09:59.094Z,1.75
2019-05-14T14:12:32.524Z,1.10
2019-05-14T14:15:01.326Z,1.10
2019-05-14T14:17:33.366Z,1.27
2019-05-14T14:20:04.120Z,2.05
2019-05-14T14:22:34.177Z,1.55
2019-05-14T14:25:08.634Z,2.00
2019-05-14T14:27:40.752Z,1.10
2019-05-14T14:30:11.764Z,1.60
2019-05-14T14:32:41.872Z,1.40
2019-05-14T14:35:12.138Z,2.37
2019-05-14T14:37:42.516Z,2.50
2019-05-14T14:40:21.315Z,1.35
2019-05-14T14:42:49.327Z,1.32
2019-05-14T14:45:21.702Z,1.30
2019-05-14T14:47:51.906Z,1.00
2019-05-14T14:50:22.430Z,1.22
2019-05-14T14:52:53.162Z,1.30
2019-05-14T14:55:23.496Z,0.90
2019-05-14T14:57:55.356Z,1.37
2019-05-14T15:00:29.091Z,0.90
2019-05-14T15:02:59.705Z,1.10
2019-05-14T15:05:29.892Z,1.10
2019-05-14T15:08:00.378Z,1.12
2019-05-14T15:10:31.107Z,1.07
2019-05-14T15:13:01.381Z,0.85
2019-05-14T15:15:32.318Z,1.17
2019-05-14T15:18:03.972Z,1.20
2019-05-14T15:20:34.399Z,0.88
2019-05-14T15:23:04.928Z,1.27
2019-05-14T15:25:35.661Z,1.57
2019-05-14T15:28:06.185Z,0.85
2019-05-14T15:30:39.304Z,1.35
2019-05-14T15:33:10.008Z,1.12
2019-05-14T15:35:40.641Z,1.25
2019-05-14T15:38:11.574Z,1.50
2019-05-14T15:40:43.745Z,1.22
2019-05-14T15:43:14.373Z,1.35
2019-05-14T15:45:45.209Z,1.20
2019-05-14T15:48:15.837Z,1.17
2019-05-14T15:50:49.860Z,1.12
2019-05-14T15:53:20.171Z,1.00
2019-05-14T15:55:51.519Z,1.37
2019-05-14T15:58:23.633Z,1.05
2019-05-14T16:00:54.417Z,0.95
2019-05-14T16:03:25.048Z,1.00
2019-05-14T16:05:55.679Z,1.20
2019-05-14T16:08:29.438Z,1.02
2019-05-14T16:11:00.335Z,1.10
2019-05-14T16:13:30.641Z,1.17
2019-05-14T16:16:01.487Z,0.90
2019-05-14T16:18:32.929Z,1.15
2019-05-14T16:21:03.376Z,1.00
2019-05-14T16:23:33.664Z,0.90
2019-05-14T16:26:04.433Z,1.22
2019-05-14T16:28:34.936Z,1.02
2019-05-14T16:31:08.351Z,1.20
2019-05-14T16:33:40.508Z,1.25
2019-05-14T16:36:11.027Z,1.37
2019-05-14T16:38:41.658Z,1.07
2019-05-14T16:41:12.186Z,1.00
2019-05-14T16:43:42.711Z,1.02
2019-05-14T16:46:13.855Z,1.05
2019-05-14T16:48:44.588Z,0.82
2019-05-14T16:51:18.969Z,1.12
2019-05-14T16:53:48.785Z,1.20
2019-05-14T16:56:19.866Z,0.90
2019-05-14T16:58:50.387Z,0.88
2019-05-14T17:01:21.167Z,1.12
2019-05-14T17:03:51.864Z,0.90
2019-05-14T17:06:22.587Z,1.05
2019-05-14T17:08:53.139Z,0.98
2019-05-14T17:11:23.862Z,1.20
2019-05-14T17:13:58.021Z,1.10
2019-05-14T17:16:29.102Z,1.17
2019-05-14T17:19:02.037Z,1.00
2019-05-14T17:21:34.048Z,1.30
2019-05-14T17:24:04.757Z,0.80
2019-05-14T17:26:35.411Z,1.00
2019-05-14T17:29:08.563Z,1.12
2019-05-14T17:31:39.149Z,1.02
2019-05-14T17:34:09.967Z,1.10
2019-05-14T17:36:40.752Z,1.15
2019-05-14T17:39:11.331Z,0.90
2019-05-14T17:41:42.214Z,0.78
2019-05-14T17:44:13.003Z,1.25
2019-05-14T17:46:48.847Z,0.80
2019-05-14T17:49:22.349Z,1.10
2019-05-14T17:51:53.085Z,1.00
2019-05-14T17:54:28.923Z,1.10
2019-05-14T17:57:00.180Z,0.93
2019-05-14T17:59:33.663Z,0.90
2019-05-14T18:02:08.552Z,1.10
2019-05-14T18:04:38.626Z,1.20
2019-05-14T18:07:09.256Z,0.90
2019-05-14T18:09:41.478Z,1.30
2019-05-14T18:12:14.700Z,1.20
2019-05-14T18:14:48.083Z,1.45
2019-05-14T18:17:21.413Z,1.02
2019-05-14T18:19:53.771Z,1.22
2019-05-14T18:22:24.508Z,1.02
2019-05-14T18:24:59.096Z,1.60
2019-05-14T18:27:29.965Z,0.93
2019-05-14T18:30:00.699Z,1.10
2019-05-14T18:32:32.867Z,1.07
2019-05-14T18:35:05.650Z,0.98
2019-05-14T18:37:39.083Z,0.80
2019-05-14T18:40:12.587Z,1.30
2019-05-14T18:42:44.664Z,1.20
2019-05-14T18:45:15.643Z,1.52
2019-05-14T18:47:49.430Z,1.35
2019-05-14T18:50:20.962Z,1.30
2019-05-14T18:53:00.746Z,1.87
2019-05-14T18:55:29.296Z,1.00
2019-05-14T18:58:01.801Z,1.17
2019-05-14T19:00:34.993Z,1.00
2019-05-14T19:03:10.372Z,1.30
2019-05-14T19:05:44.651Z,1.02
2019-05-14T19:08:17.956Z,1.02
2019-05-14T19:10:49.602Z,1.20
2019-05-14T19:13:22.076Z,1.35
2019-05-14T19:15:54.948Z,2.20
2019-05-14T19:18:31.693Z,1.90
2019-05-14T19:21:04.308Z,1.37
2019-05-14T19:23:38.461Z,2.00
2019-05-14T19:26:10.583Z,1.20
2019-05-14T19:28:41.725Z,1.30
2019-05-14T19:31:12.869Z,1.20
2019-05-14T19:33:43.661Z,0.88
2019-05-14T19:36:16.049Z,0.98
2019-05-14T19:38:48.152Z,1.17
2019-05-14T19:41:23.544Z,0.90
2019-05-14T19:43:55.614Z,0.85
2019-05-14T19:46:28.990Z,0.90
2019-05-14T19:48:59.265Z,1.25
2019-05-14T19:51:34.910Z,1.25
2019-05-14T19:54:09.943Z,1.10
2019-05-14T19:56:53.331Z,1.10
2019-05-14T19:59:18.267Z,1.20
2019-05-14T20:01:49.825Z,1.20
2019-05-14T20:04:20.535Z,1.07
2019-05-14T20:06:51.186Z,0.85
2019-05-14T20:09:21.818Z,1.10
2019-05-14T20:11:52.482Z,1.30
2019-05-14T20:14:24.677Z,1.20
2019-05-14T20:16:55.361Z,0.85
2019-05-14T20:19:30.278Z,0.95
2019-05-14T20:22:00.881Z,1.07
2019-05-14T20:24:31.743Z,1.00
2019-05-14T20:27:08.518Z,1.50
2019-05-14T20:29:38.039Z,1.35
2019-05-14T20:32:09.472Z,1.07
2019-05-14T20:34:40.102Z,1.37
2019-05-14T20:37:10.835Z,1.22
2019-05-14T20:39:42.126Z,1.50
2019-05-14T20:42:12.916Z,1.27
2019-05-14T20:44:43.546Z,1.02
2019-05-14T20:47:14.177Z,1.40
2019-05-14T20:49:44.910Z,1.05
2019-05-14T20:52:15.543Z,1.20
2019-05-14T20:54:46.477Z,1.20
2019-05-14T20:57:24.374Z,1.22
2019-05-14T20:59:49.890Z,1.25
2019-05-14T21:02:21.544Z,1.42
2019-05-14T21:04:54.362Z,1.17
2019-05-14T21:07:24.443Z,1.15
2019-05-14T21:09:55.225Z,1.05
2019-05-14T21:12:28.710Z,1.07
2019-05-14T21:14:59.174Z,0.93
2019-05-14T21:17:31.471Z,1.12
2019-05-14T21:20:03.943Z,0.82
2019-05-14T21:22:34.574Z,0.90
2019-05-14T21:25:11.294Z,1.02
2019-05-14T21:27:48.036Z,1.10
